Time;durP1;ratioP1;P1;durP2;ratioP2;P2;SDS_P1;SDS_P2;PMS_P1;PMS_P2;Temp;Humidity;BMP_temperature;BMP_pressure;BME280_temperature;BME280_humidity;BME280_pressure;Samples;Min_cycle;Max_cycle;Signal;HPM_P1;HPM_P2
2022/05/12 00:01:19;;;;;;;6.32;5.63;;;20.20;99.90;;;;;;5028351;28;20220;-77
2022/05/12 00:03:45;;;;;;;6.15;5.10;;;20.10;99.90;;;;;;5032209;28;20200;-77
2022/05/12 00:06:11;;;;;;;7.78;5.60;;;20.20;99.90;;;;;;5047538;28;20687;-75
2022/05/12 00:08:36;;;;;;;8.13;5.63;;;20.30;99.90;;;;;;5052533;28;20534;-76
2022/05/12 00:11:03;;;;;;;7.53;5.28;;;20.30;99.90;;;;;;5055127;28;20287;-76
2022/05/12 00:13:28;;;;;;;7.93;4.93;;;20.20;99.90;;;;;;5054812;28;20203;-76
2022/05/12 00:15:55;;;;;;;7.57;5.13;;;20.30;99.90;;;;;;5055699;28;20211;-76
2022/05/12 00:18:20;;;;;;;9.93;6.53;;;20.20;99.90;;;;;;5047104;28;20654;-77
2022/05/12 00:20:46;;;;;;;8.90;5.47;;;20.20;99.90;;;;;;5039206;28;20183;-76
2022/05/12 00:23:17;;;;;;;9.98;6.63;;;20.10;99.90;;;;;;5056520;28;20176;-76
2022/05/12 00:25:45;;;;;;;9.70;5.63;;;20.10;99.90;;;;;;5038364;28;20281;-75
2022/05/12 00:28:11;;;;;;;11.40;5.95;;;20.20;99.90;;;;;;5035941;28;20204;-75
2022/05/12 00:30:37;;;;;;;7.68;5.50;;;20.20;99.90;;;;;;5055105;28;20207;-76
2022/05/12 00:33:04;;;;;;;6.40;4.82;;;20.20;99.90;;;;;;5055433;28;20742;-76
2022/05/12 00:35:30;;;;;;;4.82;4.32;;;20.20;99.90;;;;;;5055253;28;20206;-77
2022/05/12 00:37:55;;;;;;;7.35;5.53;;;20.20;99.90;;;;;;5054513;28;20286;-77
2022/05/12 00:40:21;;;;;;;6.95;4.45;;;20.10;99.90;;;;;;5036695;28;20203;-76
2022/05/12 00:42:58;;;;;;;7.45;5.47;;;20.20;99.90;;;;;;5036863;28;20204;-77
2022/05/12 00:45:25;;;;;;;6.03;4.85;;;20.20;99.90;;;;;;5036886;28;20207;-77
2022/05/12 00:47:51;;;;;;;6.68;4.80;;;20.10;99.90;;;;;;5054934;28;20191;-77
2022/05/12 00:50:18;;;;;;;7.18;4.80;;;20.10;99.90;;;;;;5055025;28;20452;-76
2022/05/12 00:52:44;;;;;;;7.97;4.30;;;20.20;99.90;;;;;;5054822;28;20202;-74
2022/05/12 00:55:14;;;;;;;5.30;3.80;;;20.20;99.90;;;;;;5036534;28;20200;-75
2022/05/12 00:57:44;;;;;;;5.45;4.15;;;20.20;99.90;;;;;;5035932;28;20239;-72
2022/05/12 01:00:12;;;;;;;6.47;3.85;;;20.20;99.90;;;;;;5036714;28;20711;-76
2022/05/12 01:02:40;;;;;;;5.72;3.80;;;20.20;99.90;;;;;;5036705;28;20270;-76
2022/05/12 01:05:07;;;;;;;5.45;3.95;;;20.20;99.90;;;;;;5029908;28;20172;-76
2022/05/12 01:07:33;;;;;;;5.88;4.10;;;20.20;99.90;;;;;;5054322;28;20204;-76
2022/05/12 01:10:00;;;;;;;7.03;4.07;;;20.30;99.90;;;;;;5035592;28;20218;-76
2022/05/12 01:12:26;;;;;;;4.88;4.00;;;20.30;99.90;;;;;;5036146;28;20257;-76
2022/05/12 01:14:52;;;;;;;7.43;4.40;;;20.30;99.90;;;;;;5036172;28;20176;-77
2022/05/12 01:17:19;;;;;;;7.90;4.35;;;20.30;99.90;;;;;;5036738;28;20207;-76
2022/05/12 01:19:45;;;;;;;6.20;4.43;;;20.30;99.90;;;;;;5053903;28;20212;-76
2022/05/12 01:22:30;;;;;;;5.00;4.00;;;20.20;99.90;;;;;;5055232;28;20261;-77
2022/05/12 01:24:56;;;;;;;4.50;3.88;;;20.30;99.90;;;;;;5040529;28;20203;-76
2022/05/12 01:27:22;;;;;;;4.80;4.15;;;20.30;99.90;;;;;;5052756;28;20579;-76
2022/05/12 01:29:56;;;;;;;4.68;3.78;;;20.30;99.90;;;;;;5035529;28;20222;-77
2022/05/12 01:32:24;;;;;;;4.78;3.63;;;20.20;99.90;;;;;;5036696;28;20261;-76
2022/05/12 01:34:52;;;;;;;7.60;4.32;;;20.20;99.90;;;;;;5053870;28;20203;-77
2022/05/12 01:37:18;;;;;;;5.70;3.88;;;20.20;99.90;;;;;;5036375;28;20622;-76
2022/05/12 01:39:44;;;;;;;5.22;4.68;;;20.00;99.90;;;;;;5028009;28;20295;-77
2022/05/12 01:42:11;;;;;;;6.43;4.00;;;19.90;99.90;;;;;;5053678;28;20208;-77
2022/05/12 01:44:37;;;;;;;8.68;5.43;;;19.80;99.90;;;;;;5036130;28;20187;-77
2022/05/12 01:47:04;;;;;;;6.20;4.72;;;19.70;99.90;;;;;;5054061;28;20557;-77
2022/05/12 01:49:29;;;;;;;5.65;5.07;;;19.60;99.90;;;;;;5052731;28;20231;-77
2022/05/12 01:51:57;;;;;;;7.03;5.25;;;19.50;99.90;;;;;;5053573;28;20265;-76
2022/05/12 01:54:24;;;;;;;7.28;4.75;;;19.50;99.90;;;;;;5053540;28;20587;-77
2022/05/12 01:56:50;;;;;;;9.95;5.15;;;19.30;99.90;;;;;;5034488;28;20209;-76
2022/05/12 01:59:18;;;;;;;7.60;5.53;;;19.30;99.90;;;;;;5034571;28;20254;-77
2022/05/12 02:01:45;;;;;;;6.60;5.47;;;19.20;99.90;;;;;;5052883;28;20222;-77
2022/05/12 02:04:10;;;;;;;9.30;5.60;;;19.10;99.90;;;;;;5035775;28;20581;-76
2022/05/12 02:06:36;;;;;;;6.95;4.88;;;19.10;99.90;;;;;;5053396;28;20223;-77
2022/05/12 02:09:03;;;;;;;6.90;5.75;;;19.10;99.90;;;;;;5052927;28;20203;-77
2022/05/12 02:11:28;;;;;;;11.93;8.65;;;19.10;99.90;;;;;;5035466;28;20188;-76
2022/05/12 02:13:54;;;;;;;5.53;4.53;;;18.90;99.90;;;;;;5046328;28;20244;-77
2022/05/12 02:16:19;;;;;;;7.43;5.43;;;18.80;99.90;;;;;;5052847;28;20204;-77
2022/05/12 02:18:45;;;;;;;7.75;5.60;;;18.70;99.90;;;;;;5034264;28;20865;-76
2022/05/12 02:21:11;;;;;;;6.55;4.30;;;18.70;99.90;;;;;;5034924;28;20305;-76
2022/05/12 02:23:36;;;;;;;7.97;5.53;;;18.70;99.90;;;;;;5053164;28;20186;-76
2022/05/12 02:26:02;;;;;;;9.40;5.28;;;18.60;99.90;;;;;;5052800;28;20231;-74
2022/05/12 02:28:28;;;;;;;10.18;5.70;;;18.50;99.90;;;;;;5033771;28;20212;-76
2022/05/12 02:30:53;;;;;;;8.18;5.38;;;18.30;99.90;;;;;;5053829;28;20225;-76
2022/05/12 02:33:19;;;;;;;7.97;5.75;;;18.40;99.90;;;;;;5053746;28;20203;-75
2022/05/12 02:35:45;;;;;;;8.60;5.10;;;18.40;99.90;;;;;;5053683;28;20254;-75
2022/05/12 02:38:11;;;;;;;7.93;5.63;;;18.30;99.90;;;;;;5053079;28;20172;-76
2022/05/12 02:40:37;;;;;;;6.75;5.30;;;18.10;99.90;;;;;;5022474;28;20208;-76
2022/05/12 02:43:02;;;;;;;11.88;5.82;;;17.90;99.90;;;;;;5041172;28;20214;-75
2022/05/12 02:45:29;;;;;;;10.40;5.63;;;18.00;99.90;;;;;;5052835;28;20215;-75
2022/05/12 02:47:55;;;;;;;7.82;5.60;;;17.90;99.90;;;;;;5052435;28;20250;-76
2022/05/12 02:50:22;;;;;;;7.45;5.47;;;17.80;99.90;;;;;;5034816;28;20172;-74
2022/05/12 02:52:47;;;;;;;8.00;4.88;;;17.80;99.90;;;;;;5053011;28;20692;-75
2022/05/12 02:55:13;;;;;;;5.80;5.00;;;17.80;99.90;;;;;;5052078;28;20287;-76
2022/05/12 02:57:39;;;;;;;9.93;5.25;;;17.80;99.90;;;;;;5051979;28;20235;-75
2022/05/12 03:00:08;;;;;;;10.63;5.45;;;17.90;99.90;;;;;;5051783;28;20200;-74
2022/05/12 03:02:33;;;;;;;7.35;5.60;;;17.90;99.90;;;;;;5051751;28;20267;-74
2022/05/12 03:04:59;;;;;;;7.80;4.55;;;17.90;99.90;;;;;;5051956;28;20219;-76
2022/05/12 03:07:24;;;;;;;14.73;10.07;;;17.90;99.90;;;;;;5051579;28;20203;-75
2022/05/12 03:09:50;;;;;;;14.63;7.65;;;18.00;99.90;;;;;;5051086;28;20206;-75
2022/05/12 03:12:16;;;;;;;8.77;5.65;;;17.90;99.90;;;;;;5046059;28;20203;-75
2022/05/12 03:14:41;;;;;;;10.50;5.97;;;17.90;99.90;;;;;;5032802;28;20585;-75
2022/05/12 03:17:08;;;;;;;9.32;5.28;;;17.80;99.90;;;;;;5052181;28;20238;-77
2022/05/12 03:19:34;;;;;;;9.05;5.70;;;17.70;99.90;;;;;;5051041;28;20692;-75
2022/05/12 03:22:00;;;;;;;9.27;4.65;;;17.80;99.90;;;;;;5052089;28;20207;-75
2022/05/12 03:24:25;;;;;;;11.32;4.50;;;17.70;99.90;;;;;;5033842;28;20204;-75
2022/05/12 03:26:52;;;;;;;8.80;5.45;;;17.60;99.90;;;;;;5051602;28;20408;-75
2022/05/12 03:29:18;;;;;;;9.20;5.32;;;17.70;99.90;;;;;;5034146;28;20604;-75
2022/05/12 03:31:44;;;;;;;10.45;5.07;;;17.80;99.90;;;;;;5052232;28;20219;-76
2022/05/12 03:34:09;;;;;;;9.00;5.15;;;17.80;99.90;;;;;;5034339;28;20245;-75
2022/05/12 03:36:39;;;;;;;7.57;5.45;;;17.70;99.90;;;;;;5052502;28;20593;-76
2022/05/12 03:39:07;;;;;;;6.25;4.68;;;17.70;99.90;;;;;;5051293;28;20211;-76
2022/05/12 03:41:33;;;;;;;9.90;4.93;;;17.70;99.90;;;;;;5046341;28;20192;-76
2022/05/12 03:46:43;;;;;;;8.50;4.68;;;17.70;99.90;;;;;;5051655;28;20250;-76
2022/05/12 03:49:08;;;;;;;10.52;4.80;;;17.60;99.90;;;;;;5033515;28;20687;-76
2022/05/12 03:51:34;;;;;;;8.63;5.00;;;17.60;99.90;;;;;;5051871;28;20286;-75
2022/05/12 03:54:00;;;;;;;7.50;4.93;;;17.50;99.90;;;;;;5034805;28;20615;-76
2022/05/12 03:56:26;;;;;;;8.82;5.15;;;17.50;99.90;;;;;;5052401;28;20200;-75
2022/05/12 03:58:52;;;;;;;4.95;3.85;;;17.50;99.90;;;;;;5052069;28;20210;-76
2022/05/12 04:01:17;;;;;;;6.72;4.22;;;17.60;99.90;;;;;;5052713;28;20195;-75
2022/05/12 04:03:45;;;;;;;8.68;5.03;;;17.60;99.90;;;;;;5052108;28;20222;-77
2022/05/12 04:06:11;;;;;;;8.32;4.68;;;17.50;99.90;;;;;;5051884;28;20203;-75
2022/05/12 04:08:36;;;;;;;7.70;4.22;;;17.50;99.90;;;;;;5051119;28;20175;-74
2022/05/12 04:11:02;;;;;;;9.73;4.72;;;17.40;99.90;;;;;;5048450;28;20206;-75
2022/05/12 04:13:28;;;;;;;6.60;4.63;;;17.50;99.90;;;;;;5048857;28;20760;-75
2022/05/12 04:15:53;;;;;;;9.18;4.47;;;17.50;99.90;;;;;;5033378;28;20208;-74
2022/05/12 04:18:19;;;;;;;9.10;4.20;;;17.60;99.90;;;;;;5051325;28;20211;-75
2022/05/12 04:20:45;;;;;;;9.77;4.63;;;17.50;99.90;;;;;;5055232;28;20168;-74
2022/05/12 04:23:10;;;;;;;9.45;4.32;;;17.50;99.90;;;;;;5055568;28;20175;-75
2022/05/12 04:25:36;;;;;;;7.93;4.05;;;17.50;99.90;;;;;;5053479;28;20242;-74
2022/05/12 04:28:03;;;;;;;8.20;4.55;;;17.50;99.90;;;;;;5054111;28;20576;-73
2022/05/12 04:30:30;;;;;;;7.45;3.72;;;17.50;99.90;;;;;;5054763;28;20244;-76
2022/05/12 04:35:09;;;;;;;8.30;4.30;;;17.30;99.90;;;;;;5055125;28;20258;-74
2022/05/12 04:35:41;;;;;;;5.75;3.58;;;17.10;99.90;;;;;;5054361;28;20215;-77
2022/05/12 04:38:06;;;;;;;9.00;4.28;;;17.20;99.90;;;;;;5054563;28;20672;-76
2022/05/12 04:40:32;;;;;;;6.03;4.07;;;17.20;99.90;;;;;;5054416;28;20264;-76
2022/05/12 04:42:59;;;;;;;6.82;4.00;;;17.20;99.90;;;;;;5050670;28;20195;-77
2022/05/12 04:45:27;;;;;;;6.25;3.60;;;17.10;99.90;;;;;;5054272;28;20199;-76
2022/05/12 04:47:54;;;;;;;6.57;3.63;;;17.20;99.90;;;;;;5054345;28;20164;-77
2022/05/12 04:50:24;;;;;;;8.15;3.85;;;19.50;99.90;;;;;;5044796;28;20172;-74
2022/05/12 04:52:50;;;;;;;6.13;3.00;;;20.70;99.90;;;;;;5039628;28;20206;-76
2022/05/12 04:55:16;;;;;;;6.38;2.97;;;22.50;99.90;;;;;;5054478;28;20199;-74
2022/05/12 04:57:45;;;;;;;7.85;3.17;;;23.60;99.90;;;;;;5054312;28;20228;-75
2022/05/12 05:00:20;;;;;;;4.28;2.50;;;23.30;99.90;;;;;;5054510;28;20234;-75
2022/05/12 05:02:46;;;;;;;5.90;2.33;;;22.90;99.90;;;;;;5054584;28;20224;-76
2022/05/12 05:05:12;;;;;;;6.30;3.15;;;22.50;99.90;;;;;;5055150;28;20181;-75
2022/05/12 05:07:38;;;;;;;7.63;2.90;;;22.90;99.90;;;;;;5054142;28;20233;-75
2022/05/12 05:10:05;;;;;;;7.57;2.90;;;22.50;99.90;;;;;;5035679;28;20231;-75
2022/05/12 05:12:31;;;;;;;3.35;2.53;;;23.90;99.90;;;;;;5054550;28;20211;-75
2022/05/12 05:14:57;;;;;;;4.63;2.30;;;24.90;99.90;;;;;;5054370;28;20214;-75
2022/05/12 05:17:23;;;;;;;3.17;1.95;;;24.30;99.90;;;;;;5054601;28;20203;-76
2022/05/12 05:19:50;;;;;;;5.57;2.55;;;25.10;99.90;;;;;;5041828;28;20269;-75
2022/05/12 05:22:15;;;;;;;5.80;2.20;;;24.50;99.90;;;;;;5036306;28;20341;-75
2022/05/12 05:24:41;;;;;;;6.80;2.22;;;25.20;99.90;;;;;;5036310;28;20245;-76
2022/05/12 05:27:07;;;;;;;3.05;1.80;;;24.80;99.90;;;;;;5037400;28;20232;-75
2022/05/12 05:29:33;;;;;;;5.47;2.42;;;23.00;99.90;;;;;;5053554;28;20701;-75
2022/05/12 05:31:58;;;;;;;4.07;2.13;;;21.30;99.90;;;;;;5053717;28;20199;-74
2022/05/12 05:34:24;;;;;;;5.07;1.77;;;22.50;99.90;;;;;;5053539;28;20703;-75
2022/05/12 05:36:49;;;;;;;4.40;1.50;;;24.10;99.90;;;;;;5053862;28;20216;-75
2022/05/12 05:39:24;;;;;;;5.15;2.10;;;25.50;99.90;;;;;;5053098;28;20587;-75
2022/05/12 05:41:52;;;;;;;4.50;1.58;;;26.40;99.90;;;;;;5036866;28;20172;-75
2022/05/12 05:44:17;;;;;;;2.85;1.60;;;26.50;99.90;;;;;;5054592;28;20230;-74
2022/05/12 05:46:43;;;;;;;4.95;1.50;;;26.50;99.90;;;;;;5053563;28;20207;-75
2022/05/12 05:49:08;;;;;;;4.68;1.70;;;27.10;99.90;;;;;;5044485;28;20224;-76
2022/05/12 05:54:18;;;;;;;3.42;1.70;;;27.60;99.90;;;;;;5051255;28;20206;-76
2022/05/12 05:56:44;;;;;;;2.72;1.40;;;27.30;99.90;;;;;;5052862;28;20576;-76
2022/05/12 05:59:09;;;;;;;5.90;1.70;;;27.40;99.90;;;;;;5035198;28;20223;-75
2022/05/12 06:01:35;;;;;;;3.53;1.40;;;27.60;99.90;;;;;;5053321;28;20206;-76
2022/05/12 06:04:00;;;;;;;3.83;1.23;;;26.50;99.90;;;;;;5053247;28;20203;-75
2022/05/12 06:06:26;;;;;;;3.65;1.65;;;26.40;99.90;;;;;;5053297;28;20215;-76
2022/05/12 06:08:52;;;;;;;4.47;1.42;;;26.90;99.90;;;;;;5034619;28;20258;-76
2022/05/12 06:11:18;;;;;;;7.00;1.35;;;26.70;99.90;;;;;;5051502;28;20180;-76
2022/05/12 06:13:44;;;;;;;4.20;1.38;;;26.70;99.90;;;;;;5053329;28;20330;-76
2022/05/12 06:16:10;;;;;;;2.67;1.13;;;25.40;99.90;;;;;;5053608;28;20624;-76
2022/05/12 06:18:36;;;;;;;5.55;1.30;;;24.70;99.90;;;;;;5052400;28;20277;-75
2022/05/12 06:21:04;;;;;;;3.25;1.80;;;22.40;99.90;;;;;;5029944;28;20219;-77
2022/05/12 06:23:29;;;;;;;2.15;1.23;;;20.70;99.90;;;;;;5050972;28;20172;-77
2022/05/12 06:25:55;;;;;;;4.57;1.40;;;20.60;99.90;;;;;;5048786;28;20211;-75
2022/05/12 06:28:20;;;;;;;4.95;1.52;;;20.50;99.90;;;;;;5045880;28;20216;-75
2022/05/12 06:30:46;;;;;;;3.92;1.70;;;20.10;99.90;;;;;;5052051;28;20191;-76
2022/05/12 06:33:17;;;;;;;5.50;1.70;;;19.90;99.90;;;;;;5049407;28;20275;-75
2022/05/12 06:35:43;;;;;;;3.88;1.30;;;19.70;99.90;;;;;;5052044;28;20226;-76
2022/05/12 06:38:09;;;;;;;3.58;1.48;;;19.40;99.90;;;;;;5046845;28;20180;-76
2022/05/12 06:40:35;;;;;;;2.25;1.05;;;19.50;99.90;;;;;;5048802;28;20258;-77
2022/05/12 06:43:07;;;;;;;4.68;1.35;;;19.90;99.90;;;;;;5051568;28;20207;-76
2022/05/12 06:45:33;;;;;;;2.53;1.17;;;20.90;99.90;;;;;;5030453;28;20226;-76
2022/05/12 06:47:58;;;;;;;3.50;0.90;;;22.50;99.90;;;;;;5051346;28;20583;-74
2022/05/12 06:50:26;;;;;;;3.67;1.17;;;23.30;99.90;;;;;;5037047;28;20199;-75
2022/05/12 06:52:53;;;;;;;3.67;1.20;;;23.60;99.90;;;;;;5048737;28;20235;-76
2022/05/12 06:55:20;;;;;;;3.50;1.17;;;22.80;99.90;;;;;;5051620;28;20199;-76
2022/05/12 06:57:47;;;;;;;4.30;1.08;;;22.30;99.90;;;;;;5019230;28;20221;-74
2022/05/12 07:00:16;;;;;;;2.83;1.20;;;21.60;99.90;;;;;;5047820;28;20330;-76
2022/05/12 07:02:45;;;;;;;2.38;1.10;;;21.70;99.90;;;;;;5041973;28;20278;-78
2022/05/12 07:05:12;;;;;;;1.90;1.40;;;23.50;99.90;;;;;;5030702;28;20314;-76
2022/05/12 07:07:37;;;;;;;5.00;1.30;;;23.10;99.90;;;;;;5051495;28;20210;-75
2022/05/12 07:10:04;;;;;;;1.67;0.82;;;22.40;99.90;;;;;;5045241;28;20203;-75
2022/05/12 07:12:30;;;;;;;3.30;0.98;;;21.90;99.90;;;;;;5047710;28;20207;-75
2022/05/12 07:14:56;;;;;;;2.88;0.90;;;21.80;99.90;;;;;;5044527;28;20175;-75
2022/05/12 07:17:21;;;;;;;3.67;1.27;;;21.60;99.90;;;;;;5048395;28;20219;-76
2022/05/12 07:19:48;;;;;;;2.35;1.38;;;21.00;99.90;;;;;;5021514;28;20683;-76
2022/05/12 07:27:42;;;;;;;4.43;1.65;;;20.00;99.90;;;;;;5039521;28;20230;-75
2022/05/12 07:30:08;;;;;;;3.17;2.22;;;19.60;99.90;;;;;;5020149;28;20209;-75
2022/05/12 07:32:35;;;;;;;2.05;1.10;;;19.50;99.90;;;;;;5046809;28;20718;-73
2022/05/12 07:35:01;;;;;;;1.42;0.95;;;19.60;99.90;;;;;;5027681;28;20300;-74
2022/05/12 07:37:28;;;;;;;3.95;1.38;;;19.20;99.90;;;;;;5046394;28;20310;-77
2022/05/12 07:39:53;;;;;;;5.97;2.17;;;20.70;99.90;;;;;;5031566;28;20208;-76
2022/05/12 07:42:19;;;;;;;3.53;1.00;;;21.80;99.90;;;;;;5033394;28;20700;-74
2022/05/12 07:44:44;;;;;;;2.90;1.40;;;23.40;99.90;;;;;;5050919;28;20172;-77
2022/05/12 07:47:13;;;;;;;4.70;1.40;;;23.20;99.90;;;;;;5034159;28;20219;-77
2022/05/12 07:49:40;;;;;;;1.80;0.93;;;23.20;99.90;;;;;;5021423;28;20219;-75
2022/05/12 07:52:08;;;;;;;2.38;1.00;;;21.90;99.90;;;;;;5049999;28;20204;-82
2022/05/12 07:54:34;;;;;;;4.63;0.90;;;20.00;99.90;;;;;;5045953;28;20203;-79
2022/05/12 07:57:01;;;;;;;2.55;1.05;;;19.20;99.90;;;;;;5064176;28;20700;-83
2022/05/12 07:59:27;;;;;;;5.53;0.98;;;18.90;99.90;;;;;;5062346;28;20180;-79
2022/05/12 08:01:54;;;;;;;2.83;1.30;;;18.50;99.90;;;;;;5061174;28;20334;-77
2022/05/12 08:04:19;;;;;;;3.65;1.30;;;18.10;99.90;;;;;;5056023;28;20214;-76
2022/05/12 08:06:45;;;;;;;2.20;0.93;;;18.30;99.90;;;;;;5047449;28;20211;-76
2022/05/12 08:09:11;;;;;;;3.80;1.50;;;18.60;99.90;;;;;;5055615;28;20234;-77
2022/05/12 08:11:37;;;;;;;1.08;0.90;;;19.30;99.90;;;;;;5038376;28;20187;-75
2022/05/12 08:14:02;;;;;;;2.05;1.08;;;20.30;99.90;;;;;;5055946;28;20558;-77
2022/05/12 08:16:28;;;;;;;2.00;1.15;;;21.90;99.90;;;;;;5063658;28;20246;-82
2022/05/12 08:18:53;;;;;;;3.33;0.60;;;23.70;99.90;;;;;;5061793;28;20214;-80
2022/05/12 08:21:23;;;;;;;3.63;1.08;;;24.30;99.90;;;;;;5026090;28;20207;-83
2022/05/12 08:23:49;;;;;;;2.50;1.10;;;24.50;99.90;;;;;;5034509;28;20674;-84
2022/05/12 08:26:15;;;;;;;7.35;1.20;;;25.40;99.90;;;;;;5065429;28;20222;-83
2022/05/12 08:28:41;;;;;;;2.10;1.13;;;24.40;99.90;;;;;;5028139;28;20215;-75
2022/05/12 08:31:07;;;;;;;3.72;0.93;;;23.60;99.90;;;;;;5050599;28;20204;-81
2022/05/12 08:33:33;;;;;;;4.50;1.08;;;22.50;99.90;;;;;;5054910;28;20210;-78
2022/05/12 08:35:59;;;;;;;3.15;1.17;;;22.20;99.90;;;;;;5061709;28;20215;-82
2022/05/12 08:38:25;;;;;;;2.47;1.10;;;22.20;99.90;;;;;;5063423;28;20630;-81
2022/05/12 08:41:04;;;;;;;7.25;1.70;;;21.80;99.90;;;;;;5058962;28;20265;-78
2022/05/12 08:43:44;;;;;;;1.88;1.00;;;21.70;99.90;;;;;;5036782;28;20207;-78
2022/05/12 08:46:17;;;;;;;2.70;1.23;;;22.30;99.90;;;;;;5055039;28;20701;-78
2022/05/12 08:48:44;;;;;;;4.25;1.08;;;23.50;99.90;;;;;;5048495;28;20688;-77
2022/05/12 08:51:21;;;;;;;2.40;0.93;;;24.90;99.90;;;;;;5047674;28;20283;-79
2022/05/12 08:53:49;;;;;;;3.95;1.00;;;24.30;99.90;;;;;;5023060;28;20172;-79
2022/05/12 08:56:19;;;;;;;1.58;0.95;;;24.60;99.90;;;;;;5060920;28;20199;-79
2022/05/12 08:58:47;;;;;;;1.88;1.02;;;25.70;99.90;;;;;;5057542;28;20207;-79
2022/05/12 09:01:34;;;;;;;2.35;1.10;;;25.40;99.90;;;;;;5056431;28;20581;-79
2022/05/12 09:04:39;;;;;;;4.60;1.13;;;23.60;99.90;;;;;;5047510;28;20215;-77
2022/05/12 09:07:18;;;;;;;3.65;1.15;;;21.70;99.90;;;;;;5046354;28;20211;-78
2022/05/12 09:10:09;;;;;;;8.07;1.17;;;22.70;99.90;;;;;;5054182;28;20207;-79
2022/05/12 09:13:01;;;;;;;3.92;1.02;;;23.20;99.90;;;;;;5037570;28;20207;-78
2022/05/12 09:15:33;;;;;;;5.75;1.33;;;22.00;99.90;;;;;;5037641;28;20207;-78
2022/05/12 09:18:06;;;;;;;3.60;1.17;;;22.90;99.90;;;;;;5039287;28;20290;-78
2022/05/12 09:20:35;;;;;;;2.72;1.13;;;23.70;99.90;;;;;;5044889;28;20179;-78
2022/05/12 09:23:01;;;;;;;3.47;1.70;;;22.70;99.90;;;;;;5055736;28;20635;-78
2022/05/12 09:25:36;;;;;;;2.30;1.38;;;23.00;99.90;;;;;;5055489;28;20203;-76
2022/05/12 09:28:23;;;;;;;5.70;2.47;;;22.90;99.90;;;;;;5037754;28;20211;-78
2022/05/12 09:30:50;;;;;;;3.22;0.90;;;23.70;99.90;;;;;;5055786;28;20206;-79
2022/05/12 09:33:34;;;;;;;5.95;1.38;;;23.60;99.90;;;;;;5055218;28;20211;-78
2022/05/12 09:36:04;;;;;;;0.80;0.70;;;23.70;99.90;;;;;;5037359;28;20238;-78
2022/05/12 09:38:30;;;;;;;2.60;1.33;;;23.70;99.90;;;;;;5054359;28;20653;-78
2022/05/12 09:40:56;;;;;;;1.98;0.93;;;23.70;99.90;;;;;;5036979;28;20208;-79
2022/05/12 09:43:32;;;;;;;2.15;1.20;;;23.10;99.90;;;;;;5054629;28;20261;-79
2022/05/12 09:46:18;;;;;;;2.05;1.30;;;22.10;99.90;;;;;;5054828;28;20227;-79
2022/05/12 09:48:48;;;;;;;2.90;1.30;;;21.80;99.90;;;;;;5052216;28;20219;-78
2022/05/12 09:51:21;;;;;;;3.45;1.30;;;21.50;99.90;;;;;;5039247;28;20288;-76
2022/05/12 09:53:47;;;;;;;6.25;1.30;;;20.80;99.90;;;;;;5014286;28;20172;-77
2022/05/12 09:56:33;;;;;;;1.45;1.05;;;21.10;99.90;;;;;;5029320;28;20240;-78
2022/05/12 09:59:07;;;;;;;1.90;0.95;;;21.50;99.90;;;;;;5049106;28;20192;-77
2022/05/12 10:01:34;;;;;;;1.70;1.17;;;21.90;99.90;;;;;;5042215;28;20224;-78
2022/05/12 10:09:57;;;;;;;11.73;6.30;;;21.60;99.90;;;;;;5014410;28;20754;-76
2022/05/12 10:12:25;;;;;;;1.80;1.05;;;21.60;99.90;;;;;;5024387;28;20688;-76
2022/05/12 10:15:19;;;;;;;5.38;1.80;;;22.20;99.90;;;;;;5060795;28;20172;-84
2022/05/12 10:18:05;;;;;;;2.28;1.10;;;22.10;99.90;;;;;;5035798;28;20214;-77
2022/05/12 10:20:36;;;;;;;3.80;1.10;;;22.40;99.90;;;;;;5011680;28;20257;-80
2022/05/12 10:23:07;;;;;;;4.47;1.02;;;22.40;99.90;;;;;;5053712;28;20198;-77
2022/05/12 10:25:58;;;;;;;2.58;0.80;;;22.50;99.90;;;;;;5052795;28;20203;-74
2022/05/12 10:28:51;;;;;;;2.17;0.95;;;21.90;99.90;;;;;;5030080;28;20204;-73
2022/05/12 10:31:47;;;;;;;2.58;0.98;;;22.50;99.90;;;;;;5010847;28;20287;-73
2022/05/12 10:34:29;;;;;;;2.45;1.13;;;22.40;99.90;;;;;;5026471;28;20214;-74
2022/05/12 10:37:07;;;;;;;3.17;1.52;;;22.40;99.90;;;;;;5031877;28;21138;-77
2022/05/12 10:39:52;;;;;;;4.28;1.27;;;21.80;99.90;;;;;;5029653;28;20216;-78
2022/05/12 10:42:41;;;;;;;3.80;1.30;;;21.90;99.90;;;;;;5051536;28;20290;-75
2022/05/12 10:45:24;;;;;;;5.75;1.33;;;22.10;99.90;;;;;;5053208;28;20218;-74
2022/05/12 10:48:19;;;;;;;2.63;1.25;;;22.80;99.90;;;;;;5051985;28;20191;-77
2022/05/12 10:51:05;;;;;;;4.07;1.67;;;22.80;99.90;;;;;;5041216;28;20734;-76
2022/05/12 10:53:49;;;;;;;1.70;0.90;;;23.10;99.90;;;;;;5052382;28;20544;-75
2022/05/12 10:56:31;;;;;;;4.53;1.17;;;22.50;99.90;;;;;;5052323;28;20218;-73
2022/05/12 10:59:34;;;;;;;3.28;1.38;;;22.30;99.90;;;;;;5051513;28;20209;-76
2022/05/12 11:02:37;;;;;;;3.67;1.23;;;22.00;99.90;;;;;;5052097;28;20204;-74
2022/05/12 11:05:21;;;;;;;2.20;0.90;;;22.50;99.90;;;;;;5012612;28;20578;-74
2022/05/12 11:08:09;;;;;;;4.18;1.08;;;21.70;99.90;;;;;;5051583;28;20290;-74
2022/05/12 11:10:56;;;;;;;2.83;1.25;;;21.80;99.90;;;;;;5051952;28;20206;-74
2022/05/12 11:13:49;;;;;;;15.48;2.10;;;22.20;99.90;;;;;;5051495;28;20287;-74
2022/05/12 11:16:30;;;;;;;3.72;1.40;;;22.70;99.90;;;;;;5033863;28;20306;-75
2022/05/12 11:19:08;;;;;;;2.78;1.20;;;22.80;99.90;;;;;;5026655;28;20199;-77
2022/05/12 11:21:43;;;;;;;2.20;1.10;;;23.20;99.90;;;;;;5035510;28;20564;-79
2022/05/12 11:24:41;;;;;;;2.42;1.27;;;23.20;99.90;;;;;;5047893;28;20225;-78
2022/05/12 11:27:22;;;;;;;3.78;1.40;;;22.70;99.90;;;;;;5080486;22;20295;-73
2022/05/12 11:30:13;;;;;;;4.05;1.30;;;23.10;99.90;;;;;;5047724;28;20563;-72
2022/05/12 11:32:57;;;;;;;3.97;1.17;;;22.90;99.90;;;;;;5104777;28;20175;-72
2022/05/12 11:35:26;;;;;;;3.55;1.10;;;22.80;99.90;;;;;;5074420;28;20201;-72
2022/05/12 11:37:54;;;;;;;2.40;1.00;;;23.00;99.90;;;;;;5091071;28;20293;-73
2022/05/12 11:40:48;;;;;;;2.92;1.13;;;22.70;99.90;;;;;;5090964;28;20202;-72
2022/05/12 11:46:22;;;;;;;2.00;0.90;;;22.70;99.90;;;;;;5092009;28;20205;-71
2022/05/12 11:48:59;;;;;;;2.65;1.08;;;22.80;99.90;;;;;;5072333;28;20195;-71
2022/05/12 11:51:45;;;;;;;1.98;1.10;;;22.70;99.90;;;;;;5085888;28;20206;-72
2022/05/12 11:54:33;;;;;;;2.58;0.90;;;23.00;99.90;;;;;;5092085;28;20209;-73
2022/05/12 11:57:01;;;;;;;1.92;0.90;;;22.90;99.90;;;;;;5078057;28;20222;-72
2022/05/12 11:59:28;;;;;;;2.10;0.98;;;21.90;99.90;;;;;;5091912;28;20189;-71
2022/05/12 12:01:58;;;;;;;3.45;1.00;;;21.80;99.90;;;;;;5090742;28;20220;-71
2022/05/12 12:04:46;;;;;;;3.90;1.05;;;21.70;99.90;;;;;;5091810;28;20624;-74
2022/05/12 12:07:38;;;;;;;2.15;0.90;;;21.70;99.90;;;;;;5090612;28;20241;-72
2022/05/12 12:10:33;;;;;;;2.95;2.03;;;21.60;99.90;;;;;;5088034;28;20264;-72
2022/05/12 12:13:04;;;;;;;2.35;1.20;;;21.90;99.90;;;;;;5082559;28;20209;-70
2022/05/12 12:15:37;;;;;;;1.85;0.80;;;22.10;99.90;;;;;;5079014;28;20594;-71
2022/05/12 12:18:25;;;;;;;2.65;1.15;;;22.20;99.90;;;;;;5077902;28;20703;-71
2022/05/12 12:20:57;;;;;;;1.83;1.00;;;22.20;99.90;;;;;;5079119;28;20174;-74
2022/05/12 12:23:32;;;;;;;5.85;1.40;;;22.20;99.90;;;;;;5073567;28;20194;-71
2022/05/12 12:26:22;;;;;;;2.22;1.10;;;22.00;99.90;;;;;;5072124;28;20284;-73
2022/05/12 12:29:10;;;;;;;1.48;1.05;;;22.20;99.90;;;;;;5068872;28;20344;-72
2022/05/12 12:31:43;;;;;;;2.88;1.40;;;22.20;99.90;;;;;;5074707;28;20314;-70
2022/05/12 12:34:19;;;;;;;1.42;0.90;;;22.30;99.90;;;;;;5072009;28;20206;-70
2022/05/12 12:37:05;;;;;;;2.05;0.98;;;22.20;99.90;;;;;;5079982;28;20724;-70
2022/05/12 12:39:42;;;;;;;2.35;0.93;;;22.40;99.90;;;;;;5083440;28;20228;-72
2022/05/12 12:42:42;;;;;;;3.53;1.73;;;22.20;99.90;;;;;;5080883;28;20203;-71
2022/05/12 12:45:11;;;;;;;1.75;1.30;;;22.10;99.90;;;;;;5079665;28;20695;-72
2022/05/12 12:47:44;;;;;;;1.65;1.15;;;22.30;99.90;;;;;;5082721;28;20916;-73
2022/05/12 12:50:28;;;;;;;3.08;1.08;;;22.30;99.90;;;;;;5076516;28;20601;-70
2022/05/12 12:52:56;;;;;;;3.10;1.20;;;22.40;99.90;;;;;;5078687;28;20205;-73
2022/05/12 12:58:36;;;;;;;3.70;1.38;;;21.90;99.90;;;;;;5094509;28;20943;-70
2022/05/12 13:01:10;;;;;;;6.70;2.53;;;21.90;99.90;;;;;;5082847;28;20202;-71
2022/05/12 13:03:36;;;;;;;2.17;1.13;;;22.20;99.90;;;;;;5094670;28;20210;-69
2022/05/12 13:06:11;;;;;;;1.70;0.93;;;22.20;99.90;;;;;;5095051;28;20202;-71
2022/05/12 13:08:36;;;;;;;2.92;1.40;;;21.80;99.90;;;;;;5092991;28;20202;-72
2022/05/12 13:11:05;;;;;;;3.42;0.85;;;21.90;99.90;;;;;;5095340;28;20173;-72
2022/05/12 13:13:31;;;;;;;2.78;0.77;;;22.00;99.90;;;;;;5094217;28;20226;-71
2022/05/12 13:15:59;;;;;;;3.65;1.23;;;22.20;99.90;;;;;;5094588;28;20244;-71
2022/05/12 13:18:32;;;;;;;3.92;0.80;;;22.30;99.90;;;;;;5093755;28;20233;-73
2022/05/12 13:21:00;;;;;;;1.73;0.98;;;22.50;99.90;;;;;;5092217;28;20298;-72
2022/05/12 13:23:59;;;;;;;2.03;0.80;;;22.70;99.60;;;;;;5093430;28;20170;-73
2022/05/12 13:26:25;;;;;;;2.95;0.70;;;22.70;99.30;;;;;;5094883;28;20207;-73